今日のアクセス数

    岡山グライダークラブ活動状況掲示板あなたは無料カウンター人目の訪問者です

岡山グライダークラブ
岡山市浦安南町639-1 岡南飛行場
 使用機:シャイベ式 SF25C型 ファルケ   JA2330
      ヴァレンティン式17E型 タイフーン  JA2342
 練習日:毎日曜日  クラブルーム:電話 086-265-1810
この掲示板は岡山グライダークラブの活動状況をお知らせする掲示板です。
!!!この掲示板は投稿規制をしています。!!!
クラブ関連各種情報は 岡山グライダークラブクラブルーム      を       .
  ブリーフイング情報は  岡山グライダークラブブリーフィングルーム  をご覧下さい。 .
※写真はクリックすると拡大して見ることが出来ます。
岡南飛行場へのアクセス等は 岡南飛行場管理事務所 をご覧ください。
クラブの ホームページ ができました。

ページ 1 (1〜10)ホームページへ戻る

05月25日
by OGC at 2020/5/24(日) 23:18:51 No.20200524231348 コメント】  削除 引用
1024 x 768 x 62,368バイト
No.1

05月24日
本日の参加者
  会員      12名
  その他      0名


@本日の様子




METAR
RJOB 240000Z 09004KT 050V130 9999 FEW020 SCT040 22/17 Q1013
RJOT 240000Z 02005KT 340V080 9999 FEW025 23/17 Q1012
RJOA 240000Z 13003KT 040V210 9999 FEW025 21/15 Q1013
TAF
RJOB 232307Z 2400/2506 13008KT 9999 FEW025 SCT040
     BECMG 2421/2500 20007KT
RJOT 232308Z 2400/2506 07005KT 9999 FEW025 SCT040
     BECMG 2403/2405 27007KT
     BECMG 2410/2412 15006KT
     BECMG 2421/2500 28005KT
RJOA 232309Z 2400/2506 15005KT 9999 FEW025 SCT040
     BECMG 2409/2411 32005KTT

新型コロナ対策で活動を自粛していましたが、近隣府県の緊急事態宣言の解除を受け、本日、予防対策を講じた上で活動を再開いたしました。
活動自粛期間が長かったため、機体の入念な点検、整備後、試験フライトを行い、機体の健全性の確認を行いました。

解散    18:30

1番機  10:55離陸 撤収機  17:50着陸 

SF25C JA2330 ファルケ     11Flt.3h15min  
17E   JA2342 タイフーン    03Flt.1h05min  
合計                    14Flt.4h20min

 データ復旧′官公庁′ino    緊急=データ復旧=ino

新型コロナウイルス対策(活動再開のお知らせ)
by OGC at 2020/5/21(木) 20:55:54 No.20200521204659 コメント】  削除 引用

会員各位

岡山隣接4県の緊急事態宣言が解除となり、再開基準に合致しましたので、感染防止対策を確実に実施した上で活動を再開します。
つきましては、感染防止に必要な物を各自持参してください。(詳細は下記「感染防止対策」参照)


感染防止対策:http://okayamagliderclub.web.fc2.com/Coronameasures5.pdf

新型コロナウイルス対策(活動再開基準等のお知らせ)
by OGC at 2020/5/16(土) 10:51:17 No.20200516101826 コメント】  削除 引用

会員各位

岡山県を含む39県の緊急事態宣言が解除されましたので、下記の訓練再開基準を満たせば5月31日を待たずに訓練を再開します。

但し、訓練再開後も当面の間、下記の感染防止対策を実施しますので、必要なタオル、ハンカチ、薄手の手袋等の準備を願いします。(詳細は下記参照)

訓練再開基準:http://okayamagliderclub.web.fc2.com/Coronameasures4.pdf

訓練再開後の感染防止対策:http://okayamagliderclub.web.fc2.com/Coronameasures5.pdf

新型コロナウイルス対策(第3弾)
by OGC at 2020/5/6(水) 11:06:36 No.20200506105811 コメント】  削除 引用

会員各位

緊急事態宣言の延長に伴い新型コロナウイルス対策の第3弾として、下記リンクの通り、5月31日までフライトを自粛することにいたしました。

現段階としては6月7日から活動を再開する予定にしています。それまで、感染しないよう3密を避け、マスク、手洗い、うがいを頻繁に行い規則正しい生活をお願いします。

http://okayamagliderclub.web.fc2.com/Coronameasures3.pdf
新型コロナウイルス対策(第2弾)
by OGC at 2020/4/12(日) 16:10:34 No.20200412160134 コメント】  削除 引用

会員各位

新型コロナウイルス対策の第2弾として、下記リンクの通り、GW明けの5月6日までフライトを自粛することにいたしました。

次は5月10日から活動を再開します。それまで、感染しないよう3密を避け、マスク、手洗い、うがいを頻繁に行い規則正しい生活をお願いします。


http://okayamagliderclub.web.fc2.com/Coronameasures.pdf
04月12日
by OGC at 2020/4/12(日) 16:00:41 No.20200412155907 コメント】  削除 引用

04月12日
本日の参加者
  会員      11名
  その他      0名

METAR
RJBK 120000Z 04006KT 010V070 06KM FEW009ST SCT035CU BKN050SC 08/07 Q1013 A2994
RJOB 120000Z 07009KT 4500 -RA BR BCFG FEW000 BKN020 BKN030 06/05 Q1013
RJOT 120000Z 08008KT 7000 -RA FEW003 SCT010 BKN030 07/07 Q1012
RJOA 120000Z 07015KT 5000 -RA BCFG BR FEW000 SCT012 BKN035 05/05 Q1011
TAF
RJOB 112307Z 1200/1306 04012KT 6000 -RA BCFG FEW000 SCT010 BKN025
     TEMPO 1200/1206 4000 RA BR BCFG
     TEMPO 1206/1212 03015G25KT 4000 RA BR BCFG
     TEMPO 1212/1218 4000 SHRA BR BCFG FEW000 SCT005 BKN008
     BECMG 1218/1221 34007KT
     TEMPO 1218/1300 4000 -SHRA BR BCFG
RJOT 112307Z 1200/1306 06013KT 4000 -RA BR FEW002 BKN008 BKN030
     TEMPO 1203/1209 1500 RA BR BCFG FEW000 SCT003 BKN005
     TEMPO 1209/1215 06018G28KT 2000 RA BR BCFG FEW000 SCT003 BKN005
     BECMG 1218/1221 25008KT 8000 NSW FEW005 BKN020 BKN040
     BECMG 1300/1303 28019KT
     TEMPO 1303/1306 28023G33KT 4000 SHRA BR
RJOA 112309Z 1200/1306 07015KT 7000 -RA FEW002 SCT015 BKN040
     TEMPO 1200/1203 4000 RA BR BCFG FEW000 BKN008 BKN020
     TEMPO 1203/1215 3000 RA BR BCFG FEW000 SCT003 BKN005
     BECMG 1212/1215 34015KT
     BECMG 1221/1300 31026KT
     TEMPO 1300/1306 31027G37KT

本日は、雨のためフライトは中止、機体の整備を行い昼過ぎに解散しました。
また、新型コロナウイルスの感染拡大に伴う緊急事態宣言を受け、GW明けの5月6日まで当クラブのフライトを自粛することといたしました。
次の活動日は5月10日になります。

解散    13:30

本日のフライトはありません。

新型コロナウイルス対策
by OGC at 2020/4/6(月) 22:17:53 No.20200406221404 コメント】  削除 引用

会員各位

新型コロナウイルス対策として、クラブの対応を下記リンク先にまとめましたので、各自確認してください。

http://okayamagliderclub.web.fc2.com/Coronameasures.pdf
04月05日
by OGC at 2020/4/5(日) 22:18:59 No.20200405211408 コメント】  削除 引用
1024 x 768 x 108,796バイト
No.1

04月05日
本日の参加者
  会員      16名
  その他      0名


@本日の様子




METAR
RJBK 050000Z 34004KT 280V040 30KM FEW030CU 10/M01 Q1019 A3009
RJOB 050000Z 34010KT 290V040 9999 FEW025 09/M03 Q1018
RJOT 050000Z 01005KT 350V060 9999 FEW030 SCT080 09/M02 Q1018
RJOA 050000Z 34010KT 300V020 9999 FEW030 08/M03 Q1018
TAF
RJOB 042305Z 0500/0606 32008KT 9999 FEW030
RJOT 042308Z 0500/0606 28013KT 9999 FEW030
     BECMG 0508/0510 20005KT
RJOA 042305Z 0500/0606 32011KT 9999 FEW030
     BECMG 0600/0603 11004KT

本日は、先週から続いているファルケの100時間点検を行い、
14時頃、無事完了しました。
上昇率のいい日でしたが、1フライト約10分ということで、
ウロチョロせず、横風着陸の練習を行っていました。

解散    18:30

1番機  13:55離陸 撤収機  18:00着陸 

SF25C JA2330 ファルケ     09Flt.1h50min  
17E   JA2342 タイフーン    00Flt.0h00min  
合計                    09Flt.1h50min



03月29日
by OGC at 2020/3/29(日) 19:26:44 No.20200329192413 コメント】  削除 引用
1024 x 768 x 79,024バイト
No.1

03月29日
本日の参加者
  会員      12名
  その他      0名


@本日の様子


METAR
RJBK 290000Z 01004KT 320V090 30KM FEW020CU BKN030CU 10/04 Q1025 A3012
RJOB 290000Z 04014KT 330V070 9999 FEW015 BKN025 09/03 Q1019
RJOT 290000Z VRB01KT 9999 FEW010 SCT015 BKN050 08/05 Q1019
RJOA 290000Z 05011KT 9999 FEW015 SCT025 08/04 Q1019
TAF
RJOB 282308Z 2900/3006 02012KT 9999 FEW030
     BECMG 2921/3000 14004KT
RJOT 282307Z 2900/3006 26004KT 9999 FEW020 SCT035
     BECMG 2900/2902 01006KT
RJOA 282305Z 2900/3006 02008KT 9999 FEW025


 本日は、フライトする頃になると積雲が少し出来すぎって感じでしたが、みんな
サーマルを探して駆け廻ったり、桜が咲き始めたので上空から桜見物に行ったりし
ていました。
 フライト後には100時間点検をみんなで手分けしながら行い、来週には点検を
終える予定です。

解散    17:20

1番機  10:40離陸 撤収機  15:15着陸 

SF25C JA2330 ファルケ     08Flt.2h30min  
17E   JA2342 タイフーン    00Flt.0h00min  
合計                    08Flt.2h30min
03月22日
by OGC at 2020/3/23(月) 00:02:37 No.20200322235925 コメント】  削除 引用
1024 x 768 x 97,158バイト
No.1

03月22日
本日の参加者
  会員      12名
  その他      0名


@本日の様子


METAR
RJBK 220000Z VRB02KT 20KM FEW025CU BKN/// 12/07 Q1012 A2990
RJOB 220000Z VRB03KT 9999 FEW025 BKN/// 13/07 Q1012
RJOT 220000Z 31004KT 270V010 9999 SCT035 BKN/// 16/06 Q1012
RJOA 220000Z 29006KT 9999 FEW030 BKN/// 15/09 Q1012
TAF
RJOB 212309Z 2200/2306 22008KT 9999 FEW020 BKN035
     BECMG 2205/2207 34007KT
     BECMG 2212/2215 30004KT
RJOT 212311Z 2200/2306 26010KT 9999 FEW020 BKN045
     BECMG 2209/2211 33004KT
RJOA 212306Z 2200/2306 24006KT 9999 FEW025 BKN045
     BECMG 2206/2208 33010KT


天候は曇りで、前線通過まではほぼ無風でソロ日和、通過後は横風に変わり横風練習日和でした。
訓練生はTGL練習を行い、1名初ソロにでました。

解散    17:20

1番機  10:25離陸 撤収機  16:45着陸 

SF25C JA2330 ファルケ     11Flt.3h35min  
17E   JA2342 タイフーン    00Flt.0h00min  
合計                    11Flt.3h35min

 データ復旧′官公庁′ino    緊急=データ復旧=ino

ホームページへ 全 49 件 [ 1 2 3 4 5 ]

モータースポーツ | 管理者へメール | お知らせ | 一括削除
携帯から使う方法 | ヘルプ | 利用規約 | 違反報告 | 管理パネル



- 無料レンタル掲示板 -